createdAt,value
2022-08-22T00:00:26.421Z,100.00
2022-08-22T00:02:45.629Z,100.00
2022-08-22T00:03:01.247Z,100.00
2022-08-22T00:03:08.440Z,100.00
2022-08-22T00:03:10.898Z,100.00
2022-08-22T00:05:45.004Z,100.00
2022-08-22T00:10:50.743Z,100.00
2022-08-22T00:16:09.978Z,100.00
2022-08-22T00:21:36.466Z,100.00
2022-08-22T00:27:05.155Z,100.00
2022-08-22T00:32:30.481Z,100.00
2022-08-22T00:37:46.293Z,100.00
2022-08-22T00:43:11.257Z,100.00
2022-08-22T00:48:52.677Z,100.00
2022-08-22T00:54:17.373Z,100.00
2022-08-22T00:59:31.938Z,100.00
2022-08-22T01:05:10.600Z,100.00
2022-08-22T01:10:48.103Z,100.00
2022-08-22T01:16:04.641Z,100.00
2022-08-22T01:21:47.423Z,100.00
2022-08-22T01:27:24.548Z,100.00
2022-08-22T01:32:49.463Z,100.00
2022-08-22T01:38:19.683Z,100.00
2022-08-22T01:43:58.538Z,100.00
2022-08-22T01:49:14.331Z,100.00
2022-08-22T01:54:59.697Z,100.00
2022-08-22T02:00:09.276Z,100.00
2022-08-22T02:05:32.510Z,100.00
2022-08-22T02:11:00.515Z,100.00
2022-08-22T02:16:43.168Z,100.00
2022-08-22T02:22:07.774Z,100.00
2022-08-22T02:27:31.600Z,100.00
2022-08-22T02:32:41.006Z,100.00
2022-08-22T02:37:56.979Z,100.00
2022-08-22T02:43:09.942Z,100.00
2022-08-22T02:48:40.115Z,100.00
2022-08-22T02:53:50.562Z,100.00
2022-08-22T02:59:18.617Z,100.00
2022-08-22T03:04:48.497Z,100.00
2022-08-22T03:10:19.788Z,100.00
2022-08-22T03:15:37.193Z,100.00
2022-08-22T03:20:48.748Z,100.00
2022-08-22T03:26:19.786Z,100.00
2022-08-22T03:31:26.079Z,100.00
2022-08-22T03:36:32.210Z,100.00
2022-08-22T03:41:58.569Z,100.00
2022-08-22T03:47:36.630Z,100.00
2022-08-22T03:53:18.887Z,100.00
2022-08-22T03:58:44.921Z,100.00
2022-08-22T04:04:25.334Z,100.00
2022-08-22T04:10:08.332Z,100.00
2022-08-22T04:15:21.778Z,100.00
2022-08-22T04:20:51.182Z,100.00
2022-08-22T04:26:12.041Z,100.00
2022-08-22T04:31:23.158Z,100.00
2022-08-22T04:36:40.511Z,100.00
2022-08-22T04:41:49.671Z,100.00
2022-08-22T04:47:07.049Z,100.00
2022-08-22T04:52:16.031Z,100.00
2022-08-22T04:57:27.891Z,100.00
2022-08-22T05:02:32.029Z,100.00
2022-08-22T05:07:40.555Z,100.00
2022-08-22T05:12:54.019Z,100.00
2022-08-22T05:18:01.143Z,100.00
2022-08-22T05:23:17.537Z,100.00
2022-08-22T05:28:39.862Z,100.00
2022-08-22T05:33:48.054Z,100.00
2022-08-22T05:38:57.907Z,100.00
2022-08-22T05:44:03.321Z,100.00
2022-08-22T05:49:30.171Z,100.00
2022-08-22T05:54:37.443Z,100.00
2022-08-22T05:59:43.769Z,100.00
2022-08-22T06:04:50.959Z,100.00
2022-08-22T06:09:56.663Z,100.00
2022-08-22T06:15:16.073Z,100.00
2022-08-22T06:20:43.097Z,100.00
2022-08-22T06:25:50.546Z,100.00
2022-08-22T06:30:57.012Z,100.00
2022-08-22T06:36:27.139Z,100.00
2022-08-22T06:41:34.335Z,100.00
2022-08-22T06:46:39.132Z,100.00
2022-08-22T06:51:42.590Z,100.00
2022-08-22T06:56:49.443Z,100.00
2022-08-22T07:02:00.222Z,100.00
2022-08-22T07:07:03.596Z,100.00
2022-08-22T07:12:36.497Z,100.00
2022-08-22T07:17:52.407Z,100.00
2022-08-22T07:23:03.538Z,100.00
2022-08-22T07:28:36.994Z,100.00
2022-08-22T07:34:00.811Z,100.00
2022-08-22T07:39:33.961Z,99.60
2022-08-22T07:45:07.907Z,99.59
2022-08-22T07:50:16.818Z,88.78
2022-08-22T07:55:27.888Z,93.37
2022-08-22T08:00:33.753Z,93.35
2022-08-22T08:05:39.224Z,83.92
2022-08-22T08:10:42.584Z,81.10
2022-08-22T08:15:48.856Z,80.04
2022-08-22T08:20:55.584Z,72.95
2022-08-22T08:26:18.082Z,71.62
2022-08-22T08:31:27.863Z,75.23
2022-08-22T08:36:39.060Z,70.21
2022-08-22T08:42:16.948Z,62.85
2022-08-22T08:47:44.598Z,57.22
2022-08-22T08:53:31.361Z,52.29
2022-08-22T08:58:34.586Z,54.03
2022-08-22T09:10:04.085Z,51.32
2022-08-22T09:15:14.114Z,54.00
2022-08-22T09:20:25.894Z,48.34
2022-08-22T09:25:45.560Z,52.12
2022-08-22T09:31:32.789Z,56.77
2022-08-22T09:37:01.958Z,55.02
2022-08-22T09:42:19.543Z,53.13
2022-08-22T09:47:33.786Z,50.87
2022-08-22T09:52:51.668Z,49.97
2022-08-22T09:58:11.529Z,40.29
2022-08-22T10:03:33.791Z,43.18
2022-08-22T10:08:50.244Z,43.54
2022-08-22T10:14:22.054Z,41.53
2022-08-22T10:19:35.593Z,46.66
2022-08-22T10:24:45.457Z,41.17
2022-08-22T10:30:09.345Z,39.14
2022-08-22T10:35:51.751Z,44.21
2022-08-22T10:41:09.622Z,42.59
2022-08-22T10:46:17.459Z,45.65
2022-08-22T10:52:00.037Z,44.97
2022-08-22T10:57:23.393Z,47.83
2022-08-22T11:02:42.251Z,41.40
2022-08-22T11:08:12.689Z,39.68
2022-08-22T11:13:27.687Z,46.04
2022-08-22T11:19:15.303Z,44.43
2022-08-22T11:25:06.149Z,41.67
2022-08-22T11:30:44.732Z,40.67
2022-08-22T11:36:11.786Z,41.04
2022-08-22T11:41:32.178Z,44.79
2022-08-22T11:46:46.149Z,44.05
2022-08-22T11:52:20.909Z,44.46
2022-08-22T11:57:44.925Z,42.90
2022-08-22T12:03:25.918Z,40.50
2022-08-22T12:08:34.535Z,38.26
2022-08-22T12:13:50.063Z,35.90
2022-08-22T12:19:11.361Z,38.18
2022-08-22T12:24:34.057Z,38.48
2022-08-22T12:30:12.858Z,35.28
2022-08-22T12:35:33.204Z,36.95
2022-08-22T12:40:46.021Z,39.79
2022-08-22T12:46:20.966Z,38.67
2022-08-22T12:51:59.831Z,40.31
2022-08-22T12:57:24.044Z,43.71
2022-08-22T13:02:35.582Z,39.93
2022-08-22T13:07:41.988Z,39.49
2022-08-22T13:12:48.748Z,40.26
2022-08-22T13:17:54.293Z,37.49
2022-08-22T13:23:02.494Z,41.28
2022-08-22T13:28:35.402Z,40.67
2022-08-22T13:33:48.512Z,44.32
2022-08-22T13:39:23.199Z,38.98
2022-08-22T13:44:30.879Z,38.30
2022-08-22T13:49:44.628Z,35.10
2022-08-22T13:55:04.644Z,39.58
2022-08-22T14:00:38.249Z,38.00
2022-08-22T14:05:55.447Z,34.31
2022-08-22T14:11:33.088Z,35.25
2022-08-22T14:16:48.304Z,33.92
2022-08-22T14:21:59.564Z,34.88
2022-08-22T14:27:07.337Z,42.06
2022-08-22T14:32:35.404Z,40.71
2022-08-22T14:37:43.404Z,38.00
2022-08-22T14:42:53.978Z,37.31
2022-08-22T14:48:14.085Z,38.55
2022-08-22T14:53:29.912Z,43.50
2022-08-22T14:58:48.424Z,42.72
2022-08-22T15:04:19.268Z,42.08
2022-08-22T15:09:25.815Z,38.70
2022-08-22T15:14:38.281Z,42.65
2022-08-22T15:19:48.870Z,41.77
2022-08-22T15:25:28.763Z,43.49
2022-08-22T15:30:44.417Z,43.86
2022-08-22T15:35:50.330Z,46.28
2022-08-22T15:40:55.549Z,47.09
2022-08-22T15:46:40.180Z,46.68
2022-08-22T15:52:01.956Z,45.17
2022-08-22T15:57:11.503Z,46.84
2022-08-22T16:02:39.626Z,46.31
2022-08-22T16:07:44.730Z,46.79
2022-08-22T16:13:27.059Z,46.71
2022-08-22T16:18:34.777Z,50.36
2022-08-22T16:23:50.485Z,43.44
2022-08-22T16:29:31.860Z,46.46
2022-08-22T16:34:46.305Z,49.65
2022-08-22T16:40:14.482Z,48.45
2022-08-22T16:45:30.916Z,52.73
2022-08-22T16:50:39.172Z,51.81
2022-08-22T16:55:46.082Z,47.95
2022-08-22T17:00:58.683Z,48.65
2022-08-22T17:06:34.036Z,49.60
2022-08-22T17:12:09.927Z,53.37
2022-08-22T17:17:28.208Z,54.61
2022-08-22T17:22:53.821Z,52.08
2022-08-22T17:28:02.868Z,52.37
2022-08-22T17:33:23.462Z,54.58
2022-08-22T17:39:29.528Z,57.66
2022-08-22T17:44:44.584Z,63.36
2022-08-22T17:50:06.191Z,63.20
2022-08-22T17:55:30.157Z,63.72
2022-08-22T18:00:48.196Z,67.99
2022-08-22T18:06:05.727Z,69.94
2022-08-22T18:11:09.436Z,73.30
2022-08-22T18:16:25.131Z,79.02
2022-08-22T18:22:08.609Z,82.70
2022-08-22T18:27:39.738Z,85.93
2022-08-22T18:33:02.558Z,90.71
2022-08-22T18:45:01.061Z,100.00
2022-08-22T18:50:51.419Z,100.00
2022-08-22T19:15:27.539Z,100.00
2022-08-22T19:21:09.866Z,100.00
2022-08-22T19:26:39.330Z,100.00
2022-08-22T19:32:13.038Z,100.00
2022-08-22T19:37:33.461Z,100.00
2022-08-22T19:56:38.048Z,100.00
2022-08-22T20:03:08.042Z,100.00
2022-08-22T20:29:14.999Z,100.00
2022-08-22T20:35:02.109Z,100.00
2022-08-22T20:40:56.292Z,100.00
2022-08-22T20:46:37.289Z,100.00
2022-08-22T21:11:47.960Z,100.00
2022-08-22T21:29:18.526Z,100.00
2022-08-22T21:41:10.010Z,100.00
2022-08-22T21:46:53.691Z,100.00
2022-08-22T21:53:02.143Z,100.00
2022-08-22T22:11:59.745Z,100.00
2022-08-22T22:17:46.337Z,100.00
2022-08-22T22:23:31.811Z,100.00
2022-08-22T22:35:42.393Z,100.00
2022-08-22T22:41:33.345Z,100.00
2022-08-22T22:47:23.014Z,100.00
2022-08-22T23:06:15.187Z,100.00
2022-08-22T23:30:52.799Z,100.00
2022-08-22T23:54:03.386Z,100.00
